Time;durP1;ratioP1;P1;durP2;ratioP2;P2;SDS_P1;SDS_P2;PMS_P1;PMS_P2;Temp;Humidity;BMP_temperature;BMP_pressure;BME280_temperature;BME280_humidity;BME280_pressure;Samples;Min_cycle;Max_cycle;Signal;HPM_P1;HPM_P2
2024/01/11 00:00:23;;;;;;;467.60;232.40;;;;;;;-10.81;100.00;100217.77;108745;1251;1002445;-72
2024/01/11 00:03:10;;;;;;;455.70;226.60;;;;;;;-10.84;100.00;100214.73;109475;1251;61501;-73
2024/01/11 00:05:36;;;;;;;443.70;224.30;;;;;;;-10.80;100.00;100219.52;109503;1251;73398;-72
2024/01/11 00:08:03;;;;;;;446.40;227.10;;;;;;;-10.79;100.00;100214.72;109492;1251;59848;-73
2024/01/11 00:10:30;;;;;;;434.80;220.60;;;;;;;-10.83;100.00;100203.27;109531;1251;60300;-73
2024/01/11 00:12:56;;;;;;;442.30;218.00;;;;;;;-10.82;100.00;100200.88;109489;1251;75697;-72
2024/01/11 00:15:23;;;;;;;444.30;222.00;;;;;;;-10.84;100.00;100198.11;109518;1251;68622;-72
2024/01/11 00:17:49;;;;;;;438.60;213.20;;;;;;;-10.93;100.00;100189.31;109513;1251;73797;-72
2024/01/11 00:20:16;;;;;;;435.60;215.70;;;;;;;-11.04;100.00;100185.30;109499;1251;59057;-74
2024/01/11 00:22:43;;;;;;;451.70;212.80;;;;;;;-11.06;100.00;100181.94;109529;1251;61208;-73
2024/01/11 00:25:09;;;;;;;435.40;212.20;;;;;;;-11.15;100.00;100183.14;109532;1251;75433;-71
2024/01/11 00:27:36;;;;;;;432.30;209.90;;;;;;;-11.20;100.00;100193.77;109557;1251;58937;-72
2024/01/11 00:30:03;;;;;;;441.30;216.60;;;;;;;-11.21;100.00;100197.68;109517;1251;72660;-73
2024/01/11 00:32:30;;;;;;;443.50;217.60;;;;;;;-11.17;100.00;100188.54;109459;1251;58898;-72
2024/01/11 00:34:56;;;;;;;447.10;223.00;;;;;;;-11.20;100.00;100188.44;109469;1251;60348;-71
2024/01/11 00:37:23;;;;;;;452.00;223.90;;;;;;;-11.20;100.00;100188.27;109531;1251;74368;-72
2024/01/11 00:39:50;;;;;;;450.10;229.90;;;;;;;-11.22;100.00;100192.50;109555;1251;68881;-72
2024/01/11 00:42:17;;;;;;;440.00;225.00;;;;;;;-11.27;100.00;100183.89;109527;1251;70868;-72
2024/01/11 00:44:44;;;;;;;436.30;219.90;;;;;;;-11.20;100.00;100168.90;109484;1255;59010;-73
2024/01/11 00:47:11;;;;;;;432.50;212.40;;;;;;;-11.21;100.00;100164.93;109497;1251;61534;-72
2024/01/11 00:49:38;;;;;;;458.70;226.20;;;;;;;-11.27;100.00;100163.98;109473;1251;74363;-72
2024/01/11 00:52:05;;;;;;;484.20;237.20;;;;;;;-11.20;100.00;100164.45;109527;1251;69980;-72
2024/01/11 00:54:31;;;;;;;470.40;232.20;;;;;;;-11.17;100.00;100157.69;109466;1251;73984;-71
2024/01/11 00:56:58;;;;;;;456.30;224.00;;;;;;;-11.16;100.00;100153.79;109484;1251;59775;-72
2024/01/11 00:59:24;;;;;;;464.30;231.40;;;;;;;-11.14;100.00;100151.80;109488;1251;60039;-72
2024/01/11 01:01:51;;;;;;;474.70;234.40;;;;;;;-11.06;100.00;100153.82;107980;1251;1002827;-72
2024/01/11 01:04:17;;;;;;;481.20;237.40;;;;;;;-10.97;100.00;100155.36;109536;1251;69603;-72
2024/01/11 01:06:44;;;;;;;465.20;231.90;;;;;;;-10.94;100.00;100155.64;109534;1251;73119;-72
2024/01/11 01:09:11;;;;;;;457.30;223.90;;;;;;;-10.95;100.00;100156.46;109502;1251;59676;-73
2024/01/11 01:11:38;;;;;;;442.00;222.40;;;;;;;-10.96;100.00;100159.52;109502;1251;60216;-74
2024/01/11 01:14:05;;;;;;;445.90;223.40;;;;;;;-11.02;100.00;100153.11;109489;1251;74265;-73
2024/01/11 01:16:31;;;;;;;440.90;221.50;;;;;;;-11.01;100.00;100146.10;109524;1251;69076;-73
2024/01/11 01:18:58;;;;;;;441.40;216.20;;;;;;;-11.01;100.00;100153.83;109518;1251;72741;-74
2024/01/11 01:21:25;;;;;;;437.70;215.10;;;;;;;-11.11;100.00;100161.34;109497;1251;59992;-72
2024/01/11 01:23:51;;;;;;;424.50;210.40;;;;;;;-11.20;100.00;100167.02;109530;1251;61250;-73
2024/01/11 01:26:18;;;;;;;419.50;211.30;;;;;;;-11.27;100.00;100169.66;109507;1251;75805;-72
2024/01/11 01:28:44;;;;;;;420.70;209.40;;;;;;;-11.26;100.00;100173.12;109506;1251;68941;-72
2024/01/11 01:31:11;;;;;;;409.40;200.90;;;;;;;-11.19;100.00;100166.86;109528;1251;73419;-72
2024/01/11 01:33:40;;;;;;;418.80;202.60;;;;;;;-11.13;100.00;100158.88;109503;1251;59728;-71
2024/01/11 01:36:12;;;;;;;414.00;196.30;;;;;;;-11.08;100.00;100152.70;109379;1251;60372;-72
2024/01/11 01:38:39;;;;;;;406.30;196.90;;;;;;;-11.07;100.00;100153.98;109499;1251;73537;-72
2024/01/11 01:41:06;;;;;;;393.10;190.10;;;;;;;-11.08;100.00;100150.30;109514;1251;69618;-73
2024/01/11 01:43:32;;;;;;;411.00;199.70;;;;;;;-11.09;100.00;100145.47;109473;1251;73942;-72
2024/01/11 01:46:00;;;;;;;402.70;203.70;;;;;;;-11.08;100.00;100144.83;109522;1251;59257;-73
2024/01/11 01:48:27;;;;;;;426.80;204.20;;;;;;;-11.15;100.00;100140.77;109514;1251;60310;-72
2024/01/11 01:50:55;;;;;;;417.90;205.00;;;;;;;-11.32;100.00;100135.66;109487;1251;75819;-72
2024/01/11 01:53:24;;;;;;;408.40;197.90;;;;;;;-11.45;100.00;100139.13;109528;1251;68659;-72
2024/01/11 01:55:52;;;;;;;420.90;202.70;;;;;;;-11.59;100.00;100139.92;109521;1251;73508;-72
2024/01/11 01:58:20;;;;;;;414.30;200.80;;;;;;;-11.64;100.00;100143.69;109478;1251;59781;-73
2024/01/11 02:00:50;;;;;;;401.10;196.70;;;;;;;-11.62;100.00;100140.48;109479;1251;60382;-73
2024/01/11 02:03:17;;;;;;;398.70;196.50;;;;;;;-11.62;100.00;100143.77;109524;1251;72192;-73
2024/01/11 02:05:44;;;;;;;402.90;194.80;;;;;;;-11.60;100.00;100142.78;109507;1251;68466;-73
2024/01/11 02:08:15;;;;;;;392.90;195.90;;;;;;;-11.57;100.00;100141.56;109510;1251;73350;-72
2024/01/11 02:10:43;;;;;;;409.70;195.00;;;;;;;-11.56;100.00;100142.77;109472;1251;59738;-73
2024/01/11 02:13:11;;;;;;;402.20;203.10;;;;;;;-11.56;100.00;100136.63;109374;1251;59045;-72
2024/01/11 02:15:38;;;;;;;420.50;205.70;;;;;;;-11.56;100.00;100130.77;109526;1251;74565;-72
2024/01/11 02:18:05;;;;;;;412.00;198.90;;;;;;;-11.59;100.00;100133.73;109524;1251;69619;-72
2024/01/11 02:20:31;;;;;;;399.20;198.00;;;;;;;-11.62;100.00;100135.52;109512;1251;73995;-73
2024/01/11 02:23:05;;;;;;;402.70;200.00;;;;;;;-11.65;100.00;100137.61;109488;1251;59638;-73
2024/01/11 02:25:31;;;;;;;407.00;196.40;;;;;;;-11.61;100.00;100135.06;109547;1251;60487;-72
2024/01/11 02:27:58;;;;;;;402.30;202.40;;;;;;;-11.58;100.00;100130.55;109503;1251;74740;-71
2024/01/11 02:30:24;;;;;;;413.10;198.30;;;;;;;-11.56;100.00;100129.73;108760;1251;1002976;-73
2024/01/11 02:32:51;;;;;;;408.30;204.20;;;;;;;-11.67;100.00;100130.35;108715;1251;1002432;-73
2024/01/11 02:35:18;;;;;;;408.30;209.70;;;;;;;-11.78;100.00;100139.35;108780;1253;1002220;-74
2024/01/11 02:37:46;;;;;;;405.20;210.20;;;;;;;-11.84;100.00;100129.13;109449;1251;60017;-73
2024/01/11 02:40:13;;;;;;;409.80;204.80;;;;;;;-11.88;100.00;100123.86;109497;1252;74804;-73
2024/01/11 02:42:40;;;;;;;414.90;208.40;;;;;;;-11.99;100.00;100123.63;109499;1255;69637;-72
2024/01/11 02:45:07;;;;;;;417.00;205.80;;;;;;;-12.12;100.00;100124.93;107968;1251;1002802;-71
2024/01/11 02:47:34;;;;;;;413.30;206.30;;;;;;;-12.21;100.00;100129.55;109507;1253;60757;-72
2024/01/11 02:50:00;;;;;;;409.80;209.70;;;;;;;-12.26;100.00;100126.08;108771;1253;1002495;-72
2024/01/11 02:52:27;;;;;;;413.30;202.90;;;;;;;-12.30;100.00;100119.89;108767;1251;1003200;-73
2024/01/11 02:54:53;;;;;;;407.00;197.90;;;;;;;-12.41;100.00;100115.50;108751;1251;1003042;-73
2024/01/11 02:57:20;;;;;;;392.90;198.60;;;;;;;-12.58;100.00;100114.27;109491;1251;59124;-73
2024/01/11 02:59:51;;;;;;;396.70;197.30;;;;;;;-12.71;100.00;100115.61;109480;1251;59032;-73
2024/01/11 03:02:18;;;;;;;412.30;203.10;;;;;;;-12.79;100.00;100117.27;109561;1251;60348;-73
2024/01/11 03:04:44;;;;;;;413.10;199.60;;;;;;;-12.82;100.00;100121.77;108720;1251;1002771;-72
2024/01/11 03:07:11;;;;;;;413.80;197.80;;;;;;;-12.83;100.00;100126.52;109550;1251;68719;-73
2024/01/11 03:09:37;;;;;;;411.80;199.50;;;;;;;-12.84;100.00;100128.73;109522;1251;73672;-72
2024/01/11 03:12:06;;;;;;;415.00;192.80;;;;;;;-12.83;100.00;100124.80;107983;1251;1002724;-72
2024/01/11 03:14:33;;;;;;;394.50;193.70;;;;;;;-12.82;100.00;100127.95;109502;1251;60416;-72
2024/01/11 03:16:59;;;;;;;402.60;197.00;;;;;;;-12.83;100.00;100133.02;109564;1251;75800;-71
2024/01/11 03:19:27;;;;;;;384.30;190.60;;;;;;;-12.84;100.00;100133.98;109314;1251;67573;-73
2024/01/11 03:21:54;;;;;;;390.80;193.30;;;;;;;-12.88;100.00;100133.83;109514;1251;72422;-73
2024/01/11 03:24:20;;;;;;;412.20;197.70;;;;;;;-12.93;100.00;100137.03;108743;1251;1002789;-72
2024/01/11 03:26:48;;;;;;;407.80;197.20;;;;;;;-12.96;100.00;100132.95;109536;1251;61314;-72
2024/01/11 03:29:14;;;;;;;393.10;189.40;;;;;;;-12.98;100.00;100128.42;108589;1251;1002327;-73
2024/01/11 03:31:42;;;;;;;371.50;181.80;;;;;;;-13.00;100.00;100119.91;109521;1251;70263;-72
2024/01/11 03:34:09;;;;;;;382.30;189.30;;;;;;;-13.05;100.00;100109.11;109514;1251;73886;-73
2024/01/11 03:36:35;;;;;;;396.70;195.50;;;;;;;-13.09;100.00;100108.29;109487;1251;60385;-73
2024/01/11 03:39:02;;;;;;;391.40;186.80;;;;;;;-13.11;100.00;100113.98;108735;1251;1002323;-73
2024/01/11 03:41:28;;;;;;;378.20;184.60;;;;;;;-13.11;100.00;100112.59;108641;1251;1002828;-72
2024/01/11 03:43:55;;;;;;;371.30;187.70;;;;;;;-13.10;100.00;100104.45;109535;1251;59249;-73
2024/01/11 03:46:21;;;;;;;347.40;165.70;;;;;;;-13.09;100.00;100095.80;108745;1251;1002373;-71
2024/01/11 03:48:48;;;;;;;375.60;181.70;;;;;;;-13.09;100.00;100089.43;109308;1251;60707;-73
2024/01/11 03:51:14;;;;;;;399.70;186.20;;;;;;;-13.10;100.00;100086.68;108738;1251;1013874;-72
2024/01/11 03:53:41;;;;;;;380.70;180.30;;;;;;;-13.09;100.00;100082.45;109533;1251;74382;-72
2024/01/11 03:56:08;;;;;;;367.90;171.80;;;;;;;-13.08;100.00;100078.05;109501;1251;68676;-73
2024/01/11 03:58:36;;;;;;;357.90;171.00;;;;;;;-13.06;100.00;100070.73;108489;1251;1003045;-73
2024/01/11 04:01:02;;;;;;;360.50;166.60;;;;;;;-13.03;100.00;100065.42;108725;1251;1002273;-72
2024/01/11 04:03:29;;;;;;;346.30;159.90;;;;;;;-13.00;100.00;100073.23;108770;1251;1002820;-72
2024/01/11 04:05:55;;;;;;;357.20;160.00;;;;;;;-12.94;100.00;100084.30;109485;1251;60611;-72
2024/01/11 04:08:22;;;;;;;314.10;151.90;;;;;;;-12.87;100.00;100086.46;108763;1251;1002363;-72
2024/01/11 04:10:48;;;;;;;338.10;145.50;;;;;;;-12.80;100.00;100087.98;108751;1251;1002817;-72
2024/01/11 04:13:15;;;;;;;320.60;155.90;;;;;;;-12.71;100.00;100094.36;109525;1251;58980;-72
2024/01/11 04:15:42;;;;;;;349.20;163.30;;;;;;;-12.65;100.00;100093.80;108718;1251;1002458;-71
2024/01/11 04:18:09;;;;;;;362.90;166.50;;;;;;;-12.62;100.00;100097.50;109512;1251;74513;-72
2024/01/11 04:20:35;;;;;;;365.70;169.60;;;;;;;-12.62;100.00;100097.84;108730;1251;1002425;-71
2024/01/11 04:23:02;;;;;;;373.70;178.70;;;;;;;-12.63;100.00;100098.34;109526;1251;73967;-72
2024/01/11 04:25:28;;;;;;;335.00;167.50;;;;;;;-12.63;100.00;100097.61;109468;1251;60498;-72
2024/01/11 04:27:55;;;;;;;343.60;161.70;;;;;;;-12.64;100.00;100094.35;108772;1251;1002456;-72
2024/01/11 04:30:21;;;;;;;344.90;163.70;;;;;;;-12.67;100.00;100094.73;109464;1253;73666;-72
2024/01/11 04:32:48;;;;;;;346.80;163.50;;;;;;;-12.69;100.00;100090.88;108784;1251;1002739;-72
2024/01/11 04:35:14;;;;;;;304.90;152.00;;;;;;;-12.72;100.00;100084.42;109433;1251;59383;-72
2024/01/11 04:37:41;;;;;;;343.00;160.20;;;;;;;-12.78;100.00;100079.89;109490;1251;59027;-72
2024/01/11 04:40:08;;;;;;;344.10;156.50;;;;;;;-12.88;100.00;100084.23;108798;1251;1002841;-72
2024/01/11 04:42:34;;;;;;;330.00;156.10;;;;;;;-12.95;100.00;100072.29;108770;1251;1002452;-72
2024/01/11 04:45:01;;;;;;;349.80;157.60;;;;;;;-13.00;100.00;100053.23;109525;1251;59085;-72
2024/01/11 04:47:28;;;;;;;314.90;147.60;;;;;;;-13.03;100.00;100051.91;109557;1251;72312;-72
2024/01/11 04:49:54;;;;;;;265.30;130.20;;;;;;;-13.02;100.00;100057.77;109508;1251;61489;-72
2024/01/11 04:52:21;;;;;;;280.90;133.20;;;;;;;-12.95;100.00;100060.48;108752;1251;1003036;-72
2024/01/11 04:54:47;;;;;;;262.90;123.80;;;;;;;-12.82;100.00;100061.36;109511;1251;59096;-72
2024/01/11 04:57:14;;;;;;;236.70;115.00;;;;;;;-12.69;100.00;100061.92;109555;1251;59133;-72
2024/01/11 04:59:40;;;;;;;261.40;118.30;;;;;;;-12.56;100.00;100063.33;108000;1251;1002803;-72
2024/01/11 05:02:07;;;;;;;246.10;125.10;;;;;;;-12.43;100.00;100058.94;109520;1251;58976;-72
2024/01/11 05:04:33;;;;;;;257.40;126.40;;;;;;;-12.32;100.00;100055.09;109601;1251;59053;-72
2024/01/11 05:07:00;;;;;;;258.60;121.60;;;;;;;-12.28;100.00;100053.41;108761;1251;1002289;-72
2024/01/11 05:09:27;;;;;;;266.70;125.50;;;;;;;-12.26;100.00;100051.24;108763;1251;1002370;-72
2024/01/11 05:11:53;;;;;;;263.50;126.50;;;;;;;-12.25;100.00;100062.25;109517;1251;73679;-72
2024/01/11 05:14:20;;;;;;;253.10;115.90;;;;;;;-12.17;100.00;100067.54;109504;1251;60540;-72
2024/01/11 05:16:47;;;;;;;222.20;111.60;;;;;;;-12.07;100.00;100066.04;108766;1251;1003021;-73
2024/01/11 05:19:13;;;;;;;227.80;112.30;;;;;;;-11.98;100.00;100063.52;109519;1251;75873;-72
2024/01/11 05:21:40;;;;;;;239.10;118.80;;;;;;;-11.90;100.00;100058.00;109530;1251;67964;-72
2024/01/11 05:24:06;;;;;;;250.90;120.30;;;;;;;-11.89;100.00;100058.73;108754;1251;1002287;-71
2024/01/11 05:26:33;;;;;;;242.80;118.70;;;;;;;-11.91;100.00;100061.92;109477;1251;61094;-72
2024/01/11 05:29:00;;;;;;;211.00;101.20;;;;;;;-11.92;100.00;100056.21;109534;1251;61255;-72
2024/01/11 05:31:26;;;;;;;193.60;95.00;;;;;;;-11.91;100.00;100040.48;108607;1251;1002416;-72
2024/01/11 05:33:53;;;;;;;219.50;113.10;;;;;;;-11.91;100.00;100026.26;108743;1254;1002283;-73
2024/01/11 05:36:19;;;;;;;187.20;100.60;;;;;;;-11.95;100.00;100023.19;109523;1251;59024;-72
2024/01/11 05:38:46;;;;;;;188.70;88.40;;;;;;;-11.99;100.00;100022.88;109488;1251;59307;-73
2024/01/11 05:41:13;;;;;;;190.20;92.70;;;;;;;-12.00;100.00;100017.36;107985;1251;1003172;-72
2024/01/11 05:43:42;;;;;;;192.60;94.60;;;;;;;-11.99;100.00;99996.98;109542;1251;74715;-71
2024/01/11 05:46:09;;;;;;;206.80;95.80;;;;;;;-12.00;100.00;99995.59;109447;1251;69824;-72
2024/01/11 05:48:36;;;;;;;172.80;86.90;;;;;;;-12.00;100.00;99992.16;108709;1251;1002477;-72
2024/01/11 05:51:03;;;;;;;166.80;81.40;;;;;;;-11.99;100.00;99992.21;109486;1251;60541;-72
2024/01/11 05:53:29;;;;;;;176.70;87.50;;;;;;;-11.96;100.00;99993.89;109502;1251;60327;-71
2024/01/11 05:55:56;;;;;;;159.20;75.80;;;;;;;-11.93;100.00;99995.02;108753;1251;1002518;-73
2024/01/11 05:58:23;;;;;;;151.80;77.90;;;;;;;-11.90;100.00;99997.52;109511;1251;68774;-72
2024/01/11 06:00:49;;;;;;;122.70;60.80;;;;;;;-11.85;100.00;99998.54;109531;1251;71679;-72
2024/01/11 06:03:16;;;;;;;114.80;59.40;;;;;;;-11.74;100.00;99994.53;108715;1251;1002508;-72
2024/01/11 06:05:42;;;;;;;117.60;57.50;;;;;;;-11.57;100.00;99997.73;108595;1251;1002678;-73
2024/01/11 06:08:09;;;;;;;120.10;58.80;;;;;;;-11.39;100.00;100006.10;109555;1251;76015;-74
2024/01/11 06:10:35;;;;;;;119.70;61.20;;;;;;;-11.24;100.00;100009.89;109516;1251;68848;-71
2024/01/11 06:13:02;;;;;;;124.00;63.10;;;;;;;-11.17;100.00;100001.24;108719;1251;1002427;-73
2024/01/11 06:15:29;;;;;;;122.10;62.10;;;;;;;-11.15;100.00;99992.56;108734;1251;1002852;-72
2024/01/11 06:17:56;;;;;;;134.40;68.90;;;;;;;-11.17;100.00;99984.75;109530;1251;61465;-72
2024/01/11 06:20:22;;;;;;;146.50;73.80;;;;;;;-11.22;100.00;99990.42;109513;1251;75764;-72
2024/01/11 06:22:49;;;;;;;121.10;63.00;;;;;;;-11.27;100.00;100005.66;108773;1251;1003068;-73
2024/01/11 06:25:16;;;;;;;114.40;59.40;;;;;;;-11.18;100.00;100010.28;109341;1251;59141;-73
2024/01/11 06:27:43;;;;;;;118.00;62.30;;;;;;;-11.08;100.00;100011.85;108772;1251;1002203;-72
2024/01/11 06:30:10;;;;;;;125.20;64.80;;;;;;;-11.02;100.00;100007.27;109529;1251;61563;-72
2024/01/11 06:32:37;;;;;;;114.80;62.50;;;;;;;-11.03;100.00;100005.16;108768;1251;1002350;-72
2024/01/11 06:35:05;;;;;;;115.40;61.70;;;;;;;-11.05;100.00;100011.45;109534;1251;68816;-72
2024/01/11 06:37:31;;;;;;;119.50;62.90;;;;;;;-11.07;100.00;100006.91;109431;1251;72669;-72
2024/01/11 06:39:58;;;;;;;123.10;62.90;;;;;;;-11.09;100.00;100003.08;109496;1251;59437;-72
2024/01/11 06:42:24;;;;;;;118.70;60.60;;;;;;;-11.14;100.00;100005.14;108748;1254;1002444;-72
2024/01/11 06:44:51;;;;;;;97.60;53.70;;;;;;;-11.16;100.00;100008.15;109571;1251;74288;-73
2024/01/11 06:47:18;;;;;;;127.40;60.10;;;;;;;-11.13;100.00;100000.34;109283;1251;67656;-72
2024/01/11 06:49:45;;;;;;;119.40;60.50;;;;;;;-11.11;100.00;99991.66;109481;1251;74136;-72
2024/01/11 06:52:11;;;;;;;126.40;65.10;;;;;;;-11.11;100.00;99987.89;109493;1251;60517;-72
2024/01/11 06:54:40;;;;;;;121.00;64.80;;;;;;;-11.15;100.00;99978.30;108782;1251;1002399;-72
2024/01/11 06:57:06;;;;;;;119.40;64.80;;;;;;;-11.20;100.00;99961.13;109367;1251;74606;-72
2024/01/11 06:59:33;;;;;;;119.20;59.90;;;;;;;-11.28;100.00;99953.17;109528;1251;69575;-72
2024/01/11 07:02:00;;;;;;;118.00;59.50;;;;;;;-11.28;100.00;99951.44;109399;1253;72646;-72
2024/01/11 07:04:26;;;;;;;118.10;61.20;;;;;;;-11.25;100.00;99946.72;109519;1251;59304;-72
2024/01/11 07:06:59;;;;;;;108.00;56.50;;;;;;;-11.22;100.00;99933.48;108754;1251;1002203;-72
2024/01/11 07:09:26;;;;;;;121.40;67.60;;;;;;;-11.19;100.00;99922.42;108748;1251;1002590;-72
2024/01/11 07:11:52;;;;;;;120.80;66.70;;;;;;;-11.13;100.00;99920.05;109466;1251;59011;-72
2024/01/11 07:14:19;;;;;;;117.40;61.70;;;;;;;-11.04;100.00;99912.30;109488;1251;73935;-73
2024/01/11 07:16:45;;;;;;;100.60;55.30;;;;;;;-10.92;100.00;99910.47;108550;1251;1003493;-73
2024/01/11 07:19:12;;;;;;;88.40;48.60;;;;;;;-10.79;100.00;99904.90;108753;1251;1002453;-72
2024/01/11 07:21:38;;;;;;;72.90;40.40;;;;;;;-10.64;100.00;99910.71;109524;1251;59194;-72
2024/01/11 07:24:05;;;;;;;76.90;39.00;;;;;;;-10.46;100.00;99908.21;109510;1251;59058;-72
2024/01/11 07:26:32;;;;;;;71.20;35.90;;;;;;;-10.25;100.00;99910.39;108771;1251;1002417;-73
2024/01/11 07:28:58;;;;;;;57.30;31.40;;;;;;;-10.04;100.00;99907.73;108568;1251;1002986;-72
2024/01/11 07:31:25;;;;;;;60.40;31.40;;;;;;;-9.83;100.00;99911.80;109560;1251;58972;-73
2024/01/11 07:33:52;;;;;;;53.40;28.10;;;;;;;-9.61;100.00;99899.00;109519;1251;75788;-73
2024/01/11 07:36:18;;;;;;;52.80;29.60;;;;;;;-9.43;100.00;99890.06;109518;1255;69945;-72
2024/01/11 07:38:45;;;;;;;56.20;30.00;;;;;;;-9.25;100.00;99880.40;109512;1251;72790;-72
2024/01/11 07:41:12;;;;;;;55.10;27.10;;;;;;;-9.06;100.00;99875.38;109527;1251;59141;-73
2024/01/11 07:43:38;;;;;;;55.60;28.80;;;;;;;-8.87;100.00;99870.54;108739;1251;1003009;-72
2024/01/11 07:46:07;;;;;;;62.50;30.80;;;;;;;-8.67;100.00;99884.29;108771;1251;1002637;-72
2024/01/11 07:48:33;;;;;;;66.40;33.40;;;;;;;-8.47;100.00;99882.70;109503;1254;69977;-72
2024/01/11 07:51:00;;;;;;;59.90;30.70;;;;;;;-8.27;100.00;99885.89;107966;1251;1002886;-72
2024/01/11 07:53:26;;;;;;;60.90;30.70;;;;;;;-8.08;100.00;99885.45;108718;1252;1002312;-72
2024/01/11 07:55:53;;;;;;;58.90;31.40;;;;;;;-7.88;100.00;99890.52;108741;1251;1002177;-72
2024/01/11 07:58:20;;;;;;;59.40;30.30;;;;;;;-7.69;100.00;99894.20;109503;1253;75819;-73
2024/01/11 08:00:48;;;;;;;61.20;30.30;;;;;;;-7.46;100.00;99894.50;108759;1251;1002596;-73
2024/01/11 08:03:15;;;;;;;57.10;30.70;;;;;;;-7.19;100.00;99896.91;109517;1251;73644;-73
2024/01/11 08:05:44;;;;;;;62.50;31.20;;;;;;;-6.87;100.00;99895.77;108737;1251;1002079;-72
2024/01/11 08:08:10;;;;;;;50.00;27.80;;;;;;;-6.48;100.00;99896.26;109510;1251;61081;-73
2024/01/11 08:10:37;;;;;;;53.60;29.30;;;;;;;-6.09;100.00;99886.30;109508;1251;75773;-72
2024/01/11 08:13:04;;;;;;;55.30;30.20;;;;;;;-5.74;100.00;99871.88;109529;1251;69720;-74
2024/01/11 08:15:30;;;;;;;53.10;29.50;;;;;;;-5.44;100.00;99870.33;109501;1251;72348;-72
2024/01/11 08:17:57;;;;;;;49.10;26.70;;;;;;;-5.17;100.00;99860.74;109496;1251;59436;-72
2024/01/11 08:20:24;;;;;;;49.10;26.40;;;;;;;-4.97;100.00;99849.86;108773;1251;1002222;-73
2024/01/11 08:22:51;;;;;;;46.00;25.90;;;;;;;-4.88;100.00;99846.30;109480;1254;75561;-73
2024/01/11 08:25:17;;;;;;;48.70;26.40;;;;;;;-4.85;100.00;99849.78;109535;1251;69777;-73
2024/01/11 08:27:44;;;;;;;54.00;27.70;;;;;;;-4.81;100.00;99837.36;109483;1251;73809;-74
2024/01/11 08:30:12;;;;;;;42.60;24.80;;;;;;;-4.73;100.00;99837.59;108649;1251;1002420;-73
2024/01/11 08:32:41;;;;;;;47.10;27.50;;;;;;;-4.58;100.00;99837.70;109230;1251;60002;-73
2024/01/11 08:35:09;;;;;;;40.40;22.20;;;;;;;-4.44;100.00;99838.85;108753;1251;1002909;-73
2024/01/11 08:37:36;;;;;;;47.20;24.80;;;;;;;-4.26;100.00;99835.32;109558;1251;68726;-72
2024/01/11 08:40:05;;;;;;;46.40;25.60;;;;;;;-4.14;100.00;99832.27;109496;1252;72589;-73
2024/01/11 08:42:32;;;;;;;47.80;25.30;;;;;;;-4.01;100.00;99825.39;109457;1251;59068;-73
2024/01/11 08:45:03;;;;;;;46.10;24.90;;;;;;;-3.87;100.00;99820.78;109443;1251;59403;-73
2024/01/11 08:47:30;;;;;;;46.90;24.00;;;;;;;-3.78;100.00;99828.45;109528;1251;75902;-73
2024/01/11 08:49:57;;;;;;;47.60;25.30;;;;;;;-3.68;100.00;99828.15;109484;1254;69961;-74
2024/01/11 08:52:23;;;;;;;43.60;23.70;;;;;;;-3.58;100.00;99826.98;108748;1251;1002292;-73
2024/01/11 08:54:50;;;;;;;43.90;22.60;;;;;;;-3.48;100.00;99824.92;108756;1251;1002364;-73
2024/01/11 08:57:17;;;;;;;44.40;23.70;;;;;;;-3.36;100.00;99830.52;109386;1251;59273;-73
2024/01/11 08:59:44;;;;;;;41.50;23.30;;;;;;;-3.25;100.00;99830.03;109363;1251;73371;-73
2024/01/11 09:02:10;;;;;;;45.20;25.30;;;;;;;-3.14;100.00;99830.73;109526;1251;69673;-73
2024/01/11 09:04:37;;;;;;;41.40;23.90;;;;;;;-3.03;100.00;99834.77;109502;1251;65334;-74
2024/01/11 09:07:03;;;;;;;39.80;21.30;;;;;;;-2.93;100.00;99839.12;109493;1251;58983;-72
2024/01/11 09:09:30;;;;;;;40.60;21.20;;;;;;;-2.90;100.00;99845.73;109256;1251;60286;-72
2024/01/11 09:11:56;;;;;;;43.00;25.40;;;;;;;-2.92;100.00;99846.77;109530;1251;65979;-72
2024/01/11 09:14:23;;;;;;;40.30;22.30;;;;;;;-2.93;100.00;99850.77;109517;1251;61375;-73
2024/01/11 09:16:49;;;;;;;43.80;24.50;;;;;;;-2.95;100.00;99853.71;109519;1251;65044;-72
2024/01/11 09:19:16;;;;;;;47.10;25.50;;;;;;;-2.92;100.00;99855.48;109509;1251;58971;-73
2024/01/11 09:21:43;;;;;;;45.40;24.40;;;;;;;-2.89;100.00;99857.56;109501;1252;58927;-72
2024/01/11 09:24:09;;;;;;;42.60;23.20;;;;;;;-2.88;100.00;99858.77;109334;1251;66987;-74
2024/01/11 09:26:36;;;;;;;44.40;21.30;;;;;;;-2.87;100.00;99856.86;109550;1251;60021;-73
2024/01/11 09:29:02;;;;;;;42.90;21.90;;;;;;;-2.82;100.00;99852.70;109487;1251;65251;-74
2024/01/11 09:31:29;;;;;;;38.80;21.80;;;;;;;-2.72;100.00;99843.31;109500;1251;58974;-74
2024/01/11 09:33:57;;;;;;;38.10;20.90;;;;;;;-2.54;100.00;99848.70;109513;1251;60301;-74
2024/01/11 09:36:23;;;;;;;37.10;21.40;;;;;;;-2.32;100.00;99847.30;109516;1251;74919;-73
2024/01/11 09:38:50;;;;;;;35.80;20.70;;;;;;;-2.06;100.00;99853.52;109503;1251;69449;-73
2024/01/11 09:41:17;;;;;;;38.30;19.80;;;;;;;-1.80;100.00;99848.92;109501;1251;72600;-73
2024/01/11 09:43:45;;;;;;;38.20;20.60;;;;;;;-1.59;100.00;99838.91;109450;1252;60737;-73
2024/01/11 09:46:12;;;;;;;37.10;22.40;;;;;;;-1.42;100.00;99834.66;109437;1253;60399;-73
2024/01/11 09:48:43;;;;;;;36.80;21.20;;;;;;;-1.28;100.00;99838.94;109441;1252;76145;-74
2024/01/11 09:51:13;;;;;;;33.60;20.30;;;;;;;-1.17;100.00;99838.17;108379;1251;1002264;-73
2024/01/11 09:53:40;;;;;;;37.40;21.80;;;;;;;-1.07;100.00;99833.59;109495;1251;65478;-73
2024/01/11 09:56:09;;;;;;;34.80;20.60;;;;;;;-0.96;100.00;99822.88;109463;1251;58992;-72
2024/01/11 09:58:36;;;;;;;36.70;19.70;;;;;;;-0.91;100.00;99820.23;109516;1251;59013;-73
2024/01/11 10:01:08;;;;;;;33.90;20.70;;;;;;;-0.90;100.00;99823.01;109529;1251;65698;-73
2024/01/11 10:03:35;;;;;;;34.90;20.20;;;;;;;-0.87;100.00;99813.73;109575;1251;60341;-72
2024/01/11 10:06:03;;;;;;;32.90;19.00;;;;;;;-0.89;100.00;99800.31;109516;1251;63994;-73
2024/01/11 10:08:30;;;;;;;35.40;19.70;;;;;;;-0.90;100.00;99790.91;109458;1251;59272;-74
2024/01/11 10:10:57;;;;;;;34.20;18.90;;;;;;;-0.85;100.00;99790.18;109262;1251;59085;-72
2024/01/11 10:13:28;;;;;;;31.20;19.30;;;;;;;-0.78;100.00;99785.40;109542;1254;67212;-73
2024/01/11 10:16:13;;;;;;;31.70;18.70;;;;;;;-0.72;100.00;99776.80;109501;1251;60983;-73
2024/01/11 10:18:40;;;;;;;34.90;18.50;;;;;;;-0.68;100.00;99780.61;109480;1254;64015;-73
2024/01/11 10:21:06;;;;;;;34.90;19.40;;;;;;;-0.69;100.00;99776.44;109494;1251;59113;-73
2024/01/11 10:23:34;;;;;;;32.60;18.50;;;;;;;-0.72;100.00;99779.95;109481;1253;58985;-72
2024/01/11 10:41:36;;;;;;;38.40;22.30;;;;;;;-1.01;100.00;99763.43;103347;1282;600713;-73
2024/01/11 10:44:08;;;;;;;41.90;24.50;;;;;;;-1.01;100.00;99754.02;104976;1270;59178;-75
2024/01/11 10:46:35;;;;;;;45.70;25.60;;;;;;;-0.99;100.00;99742.48;104951;1270;59366;-73
2024/01/11 10:49:04;;;;;;;41.90;25.00;;;;;;;-0.96;100.00;99735.67;104958;1266;64069;-73
2024/01/11 10:51:32;;;;;;;41.90;25.60;;;;;;;-0.96;100.00;99735.48;104674;1273;60625;-74
2024/01/11 10:54:00;;;;;;;43.70;26.20;;;;;;;-0.94;100.00;99735.14;104876;1270;117313;-73